createdAt,value
2018-07-31T00:00:47.323Z,23.40
2018-07-31T00:03:15.650Z,23.30
2018-07-31T00:05:43.986Z,23.20
2018-07-31T00:08:12.428Z,23.00
2018-07-31T00:10:40.855Z,23.10
2018-07-31T00:13:09.235Z,23.10
2018-07-31T00:15:37.557Z,23.10
2018-07-31T00:18:05.907Z,23.00
2018-07-31T00:20:34.227Z,22.90
2018-07-31T00:23:02.551Z,23.00
2018-07-31T00:25:30.868Z,23.00
2018-07-31T00:27:59.181Z,22.90
2018-07-31T00:30:27.514Z,22.90
2018-07-31T00:32:55.882Z,23.10
2018-07-31T00:35:24.218Z,23.30
2018-07-31T00:37:52.574Z,23.60
2018-07-31T00:40:20.854Z,23.70
2018-07-31T00:42:49.218Z,23.90
2018-07-31T00:45:17.621Z,23.90
2018-07-31T00:47:45.978Z,24.00
2018-07-31T00:50:14.300Z,24.00
2018-07-31T00:52:42.610Z,24.10
2018-07-31T00:55:10.899Z,24.10
2018-07-31T00:57:39.200Z,24.20
2018-07-31T01:00:07.601Z,24.20
2018-07-31T01:02:35.910Z,24.20
2018-07-31T01:07:32.612Z,24.30
2018-07-31T01:10:00.916Z,24.20
2018-07-31T01:12:29.240Z,24.30
2018-07-31T01:14:57.550Z,24.30
2018-07-31T01:17:25.839Z,24.30
2018-07-31T01:19:54.132Z,24.30
2018-07-31T01:22:22.430Z,24.40
2018-07-31T01:24:50.827Z,24.40
2018-07-31T01:27:19.139Z,24.40
2018-07-31T01:29:47.458Z,24.40
2018-07-31T01:32:15.906Z,24.40
2018-07-31T01:34:44.224Z,24.40
2018-07-31T01:37:12.525Z,24.40
2018-07-31T01:39:40.843Z,24.40
2018-07-31T01:42:09.159Z,24.40
2018-07-31T01:44:37.430Z,24.40
2018-07-31T01:47:05.930Z,24.40
2018-07-31T01:49:34.207Z,24.40
2018-07-31T01:52:02.502Z,24.40
2018-07-31T01:54:30.834Z,24.50
2018-07-31T01:56:59.129Z,24.40
2018-07-31T01:59:27.427Z,24.40
2018-07-31T02:01:55.748Z,24.50
2018-07-31T02:04:24.030Z,24.50
2018-07-31T02:06:52.390Z,24.50
2018-07-31T02:09:20.671Z,24.50
2018-07-31T02:11:48.991Z,24.50
2018-07-31T02:14:17.286Z,24.50
2018-07-31T02:16:45.566Z,24.50
2018-07-31T02:19:13.891Z,24.50
2018-07-31T02:21:42.222Z,24.50
2018-07-31T02:24:10.598Z,24.50
2018-07-31T02:26:38.985Z,24.50
2018-07-31T02:29:07.285Z,24.50
2018-07-31T02:31:35.587Z,24.50
2018-07-31T02:34:03.890Z,24.50
2018-07-31T02:36:32.212Z,24.60
2018-07-31T02:39:00.526Z,24.50
2018-07-31T02:41:28.920Z,24.60
2018-07-31T02:43:57.226Z,24.60
2018-07-31T02:46:25.519Z,24.50
2018-07-31T02:48:53.827Z,24.50
2018-07-31T02:51:22.135Z,24.50
2018-07-31T02:53:50.606Z,24.50
2018-07-31T02:56:18.907Z,24.50
2018-07-31T02:58:47.207Z,24.50
2018-07-31T03:01:15.502Z,24.50
2018-07-31T03:03:43.930Z,24.50
2018-07-31T03:06:12.203Z,24.60
2018-07-31T03:08:40.504Z,24.60
2018-07-31T03:11:08.795Z,24.60
2018-07-31T03:13:37.085Z,24.50
2018-07-31T03:16:05.655Z,24.60
2018-07-31T03:18:33.939Z,24.50
2018-07-31T03:21:02.255Z,24.50
2018-07-31T03:23:30.540Z,24.50
2018-07-31T03:25:58.839Z,24.60
2018-07-31T03:28:27.125Z,24.60
2018-07-31T03:30:55.438Z,24.50
2018-07-31T03:33:23.751Z,24.50
2018-07-31T03:35:52.175Z,24.60
2018-07-31T03:38:20.556Z,24.60
2018-07-31T03:40:48.839Z,24.50
2018-07-31T03:43:17.155Z,24.50
2018-07-31T03:48:13.515Z,24.60
2018-07-31T03:50:41.849Z,24.50
2018-07-31T03:53:10.170Z,24.50
2018-07-31T03:55:38.505Z,24.50
2018-07-31T03:58:06.746Z,24.50
2018-07-31T04:00:35.045Z,24.50
2018-07-31T04:03:03.372Z,24.60
2018-07-31T04:05:31.737Z,24.50
2018-07-31T04:07:59.972Z,24.60
2018-07-31T04:10:28.283Z,24.50
2018-07-31T04:12:56.589Z,24.60
2018-07-31T04:15:24.874Z,24.50
2018-07-31T04:17:56.366Z,24.50
2018-07-31T04:20:24.942Z,24.50
2018-07-31T04:22:53.531Z,24.60
2018-07-31T04:25:22.097Z,24.60
2018-07-31T04:27:50.398Z,24.60
2018-07-31T04:30:18.728Z,24.60
2018-07-31T04:32:47.011Z,24.50
2018-07-31T04:35:15.318Z,24.50
2018-07-31T04:37:43.613Z,24.50
2018-07-31T04:40:11.935Z,24.50
2018-07-31T04:42:40.231Z,24.60
2018-07-31T04:45:09.747Z,24.60
2018-07-31T04:47:38.647Z,24.60
2018-07-31T04:50:07.534Z,24.60
2018-07-31T04:52:35.845Z,24.60
2018-07-31T04:57:32.534Z,24.60
2018-07-31T05:00:00.944Z,24.60
2018-07-31T05:02:29.266Z,24.50
2018-07-31T05:04:57.570Z,24.50
2018-07-31T05:07:25.883Z,24.50
2018-07-31T05:09:54.186Z,24.50
2018-07-31T05:12:22.495Z,24.50
2018-07-31T05:14:50.791Z,24.60
2018-07-31T05:17:19.098Z,24.60
2018-07-31T05:19:47.407Z,24.50
2018-07-31T05:22:15.718Z,24.50
2018-07-31T05:24:44.004Z,24.50
2018-07-31T05:27:12.283Z,24.60
2018-07-31T05:29:40.626Z,24.50
2018-07-31T05:32:08.930Z,24.60
2018-07-31T05:34:37.255Z,24.60
2018-07-31T05:37:05.615Z,24.60
2018-07-31T05:39:33.962Z,24.60
2018-07-31T05:42:02.245Z,24.50
2018-07-31T05:44:30.583Z,24.60
2018-07-31T05:46:58.854Z,24.60
2018-07-31T05:49:27.122Z,24.60
2018-07-31T05:51:55.451Z,24.60
2018-07-31T05:54:23.743Z,24.60
2018-07-31T05:56:52.062Z,24.60
2018-07-31T05:59:20.399Z,24.60
2018-07-31T06:01:48.734Z,24.60
2018-07-31T06:04:17.066Z,24.60
2018-07-31T06:06:45.406Z,24.60
2018-07-31T06:09:13.748Z,24.60
2018-07-31T06:11:42.029Z,24.60
2018-07-31T06:14:10.334Z,24.60
2018-07-31T06:16:39.086Z,24.60
2018-07-31T06:19:07.683Z,24.60
2018-07-31T06:21:36.179Z,24.60
2018-07-31T06:24:04.760Z,24.70
2018-07-31T06:29:01.110Z,24.70
2018-07-31T06:31:30.490Z,24.50
2018-07-31T06:33:59.037Z,24.50
2018-07-31T06:36:27.346Z,24.60
2018-07-31T06:38:55.679Z,24.60
2018-07-31T06:41:24.005Z,24.70
2018-07-31T06:43:52.603Z,24.70
2018-07-31T06:46:20.887Z,24.70
2018-07-31T06:48:49.208Z,24.70
2018-07-31T06:51:17.516Z,24.80
2018-07-31T06:53:45.856Z,24.70
2018-07-31T06:56:14.187Z,24.80
2018-07-31T06:58:42.491Z,24.80
2018-07-31T07:01:10.815Z,24.80
2018-07-31T07:06:07.404Z,24.80
2018-07-31T07:08:35.773Z,24.80
2018-07-31T07:11:04.173Z,24.80
2018-07-31T07:13:32.464Z,24.80
2018-07-31T07:16:00.774Z,24.80
2018-07-31T07:18:29.075Z,24.80
2018-07-31T07:20:57.438Z,24.80
2018-07-31T07:23:25.771Z,24.80
2018-07-31T07:25:54.082Z,24.80
2018-07-31T07:28:22.377Z,24.80
2018-07-31T07:30:50.753Z,24.80
2018-07-31T07:33:19.055Z,24.90
2018-07-31T07:35:47.370Z,24.90
2018-07-31T07:38:15.670Z,24.90
2018-07-31T07:40:43.995Z,24.90
2018-07-31T07:43:12.368Z,25.00
2018-07-31T07:45:40.696Z,25.00
2018-07-31T07:48:09.070Z,25.00
2018-07-31T07:50:37.770Z,25.00
2018-07-31T07:53:06.446Z,25.00
2018-07-31T07:55:34.809Z,25.00
2018-07-31T07:58:03.179Z,25.10
2018-07-31T08:00:31.503Z,25.10
2018-07-31T08:02:59.796Z,25.10
2018-07-31T08:05:28.110Z,25.20
2018-07-31T08:07:56.418Z,25.20
2018-07-31T08:10:24.742Z,25.20
2018-07-31T08:12:53.207Z,25.20
2018-07-31T08:15:21.563Z,25.20
2018-07-31T08:17:49.863Z,25.20
2018-07-31T08:20:18.199Z,24.50
2018-07-31T08:22:46.523Z,25.20
2018-07-31T08:25:14.839Z,25.30
2018-07-31T08:27:43.146Z,25.30
2018-07-31T08:30:11.451Z,25.40
2018-07-31T08:35:07.839Z,25.40
2018-07-31T08:37:36.155Z,25.40
2018-07-31T08:40:04.710Z,25.50
2018-07-31T08:42:33.119Z,25.50
2018-07-31T08:45:01.463Z,25.50
2018-07-31T08:47:29.787Z,25.50
2018-07-31T08:49:58.077Z,25.50
2018-07-31T08:52:26.394Z,25.60
2018-07-31T08:54:54.696Z,25.60
2018-07-31T08:57:23.010Z,25.60
2018-07-31T08:59:51.553Z,25.70
2018-07-31T09:02:19.851Z,25.60
2018-07-31T09:04:48.149Z,25.70
2018-07-31T09:07:16.455Z,25.70
2018-07-31T09:09:44.788Z,25.70
2018-07-31T09:14:41.194Z,25.60
2018-07-31T09:17:10.084Z,25.50
2018-07-31T09:19:38.419Z,25.40
2018-07-31T09:22:06.738Z,25.40
2018-07-31T09:24:35.098Z,25.50
2018-07-31T09:27:05.083Z,25.50
2018-07-31T09:29:33.367Z,25.50
2018-07-31T09:32:01.692Z,25.50
2018-07-31T09:34:30.022Z,25.50
2018-07-31T09:36:58.418Z,25.50
2018-07-31T09:39:26.740Z,25.50
2018-07-31T09:41:55.047Z,25.50
2018-07-31T09:46:51.422Z,25.50
2018-07-31T09:49:19.745Z,25.50
2018-07-31T09:51:48.046Z,25.50
2018-07-31T09:54:16.334Z,25.50
2018-07-31T09:56:44.684Z,25.50
2018-07-31T09:59:13.066Z,25.50
2018-07-31T10:01:41.380Z,25.50
2018-07-31T10:04:09.658Z,25.50
2018-07-31T10:06:38.079Z,25.40
2018-07-31T10:09:08.540Z,25.20
2018-07-31T10:11:36.849Z,25.20
2018-07-31T10:14:05.156Z,25.20
2018-07-31T10:16:33.466Z,25.20
2018-07-31T10:19:01.784Z,25.20
2018-07-31T10:21:30.091Z,25.20
2018-07-31T10:23:58.413Z,25.10
2018-07-31T10:26:26.703Z,25.10
2018-07-31T10:28:55.013Z,25.00
2018-07-31T10:31:23.343Z,25.00
2018-07-31T10:33:51.686Z,25.00
2018-07-31T10:36:19.988Z,25.00
2018-07-31T10:43:44.413Z,24.90
2018-07-31T10:46:12.715Z,24.80
2018-07-31T10:48:41.021Z,24.80
2018-07-31T10:51:09.337Z,24.80
2018-07-31T10:53:37.633Z,24.80
2018-07-31T10:58:34.151Z,24.70
2018-07-31T11:01:02.386Z,24.70
2018-07-31T11:03:30.676Z,24.70
2018-07-31T11:05:59.003Z,24.80
2018-07-31T11:08:27.308Z,24.90
2018-07-31T11:10:55.601Z,24.90
2018-07-31T11:13:23.947Z,24.90
2018-07-31T11:15:52.239Z,24.90
2018-07-31T11:18:20.548Z,25.00
2018-07-31T11:20:48.840Z,24.90
2018-07-31T11:23:17.174Z,25.00
2018-07-31T11:25:45.492Z,25.00
2018-07-31T11:28:13.878Z,25.00
2018-07-31T11:30:42.168Z,25.00
2018-07-31T11:33:10.467Z,25.00
2018-07-31T11:35:38.780Z,25.10
2018-07-31T11:38:07.090Z,25.10
2018-07-31T11:40:35.483Z,25.10
2018-07-31T11:43:03.779Z,25.10
2018-07-31T11:45:32.088Z,25.20
2018-07-31T11:48:00.409Z,25.30
2018-07-31T11:50:28.705Z,25.40
2018-07-31T11:55:25.071Z,25.50
2018-07-31T11:57:53.368Z,25.50
2018-07-31T12:00:21.815Z,25.50
2018-07-31T12:02:50.103Z,25.50
2018-07-31T12:05:18.422Z,25.50
2018-07-31T12:07:46.706Z,25.50
2018-07-31T12:10:15.011Z,25.60
2018-07-31T12:12:43.349Z,25.50
2018-07-31T12:15:11.661Z,25.50
2018-07-31T12:17:39.971Z,25.50
2018-07-31T12:20:08.260Z,25.50
2018-07-31T12:22:36.585Z,25.60
2018-07-31T12:25:04.897Z,25.60
2018-07-31T12:27:33.259Z,25.60
2018-07-31T12:30:01.544Z,25.80
2018-07-31T12:32:29.853Z,25.80
2018-07-31T12:34:58.150Z,25.80
2018-07-31T12:37:26.504Z,25.80
2018-07-31T12:39:54.789Z,25.80
2018-07-31T12:42:23.114Z,25.80
2018-07-31T12:44:51.411Z,25.80
2018-07-31T12:47:19.718Z,25.80
2018-07-31T12:49:48.025Z,25.90
2018-07-31T12:52:16.419Z,25.80
2018-07-31T12:54:44.730Z,25.80
2018-07-31T12:57:13.054Z,25.80
2018-07-31T12:59:41.394Z,25.80
2018-07-31T13:04:45.223Z,25.80
2018-07-31T13:07:13.511Z,25.80
2018-07-31T13:09:41.863Z,25.80
2018-07-31T13:12:10.158Z,25.80
2018-07-31T13:14:38.455Z,25.80
2018-07-31T13:17:06.751Z,25.80
2018-07-31T13:19:35.049Z,25.90
2018-07-31T13:22:03.325Z,25.80
2018-07-31T13:24:31.638Z,25.90
2018-07-31T13:26:59.942Z,25.90
2018-07-31T13:29:28.225Z,25.90
2018-07-31T13:31:56.561Z,25.80
2018-07-31T13:34:24.877Z,25.80
2018-07-31T13:36:53.202Z,25.90
2018-07-31T13:41:49.656Z,26.00
2018-07-31T13:44:17.963Z,26.10
2018-07-31T13:46:46.263Z,26.10
2018-07-31T13:49:14.542Z,26.00
2018-07-31T13:51:42.842Z,26.00
2018-07-31T13:54:11.121Z,26.00
2018-07-31T13:56:39.535Z,26.00
2018-07-31T13:59:07.826Z,26.30
2018-07-31T14:01:36.183Z,26.00
2018-07-31T14:04:04.482Z,25.90
2018-07-31T14:06:32.731Z,26.00
2018-07-31T14:09:01.106Z,25.90
2018-07-31T14:11:29.386Z,25.90
2018-07-31T14:13:57.837Z,25.90
2018-07-31T14:16:26.131Z,26.00
2018-07-31T14:18:54.427Z,26.00
2018-07-31T14:21:22.723Z,26.00
2018-07-31T14:23:51.031Z,26.00
2018-07-31T14:26:19.348Z,26.00
2018-07-31T14:28:47.647Z,26.00
2018-07-31T14:31:15.946Z,26.00
2018-07-31T14:33:44.251Z,26.00
2018-07-31T14:36:12.559Z,25.90
2018-07-31T14:38:40.875Z,25.90
2018-07-31T14:41:09.147Z,25.90
2018-07-31T14:43:37.542Z,25.90
2018-07-31T14:46:05.870Z,25.90
2018-07-31T14:48:34.168Z,25.90
2018-07-31T14:51:02.477Z,25.90
2018-07-31T14:53:30.758Z,25.90
2018-07-31T14:55:59.051Z,25.80
2018-07-31T14:58:27.355Z,25.80
2018-07-31T15:00:55.667Z,25.80
2018-07-31T15:03:24.052Z,25.80
2018-07-31T15:05:52.353Z,25.80
2018-07-31T15:08:20.642Z,25.90
2018-07-31T15:10:48.997Z,25.80
2018-07-31T15:13:17.386Z,25.80
2018-07-31T15:15:45.651Z,25.90
2018-07-31T15:18:13.944Z,25.90
2018-07-31T15:20:42.294Z,25.90
2018-07-31T15:23:10.679Z,25.90
2018-07-31T15:25:39.077Z,25.80
2018-07-31T15:28:07.585Z,25.80
2018-07-31T15:33:04.049Z,25.80
2018-07-31T15:35:32.350Z,25.90
2018-07-31T15:38:00.650Z,25.80
2018-07-31T15:40:28.992Z,25.80
2018-07-31T15:42:57.294Z,25.80
2018-07-31T15:45:25.586Z,25.50
2018-07-31T15:47:53.871Z,25.30
2018-07-31T15:50:22.166Z,25.20
2018-07-31T15:55:18.623Z,25.40
2018-07-31T15:57:46.940Z,25.50
2018-07-31T16:00:15.294Z,25.50
2018-07-31T16:02:43.590Z,25.50
2018-07-31T16:05:11.880Z,25.50
2018-07-31T16:07:40.192Z,25.50
2018-07-31T16:12:36.533Z,25.50
2018-07-31T16:15:05.102Z,25.60
2018-07-31T16:17:33.386Z,25.50
2018-07-31T16:20:01.702Z,25.50
2018-07-31T16:24:58.084Z,25.00
2018-07-31T16:27:26.432Z,25.00
2018-07-31T16:29:54.731Z,24.90
2018-07-31T16:32:23.017Z,24.80
2018-07-31T16:34:51.319Z,24.80
2018-07-31T16:37:19.605Z,24.70
2018-07-31T16:39:47.930Z,24.70
2018-07-31T16:42:16.204Z,24.70
2018-07-31T16:47:12.523Z,24.80
2018-07-31T16:52:08.847Z,24.80
2018-07-31T16:54:37.131Z,24.80
2018-07-31T16:57:05.417Z,24.90
2018-07-31T16:59:33.754Z,24.80
2018-07-31T17:02:02.060Z,24.70
2018-07-31T17:04:30.381Z,24.70
2018-07-31T17:06:58.673Z,24.70
2018-07-31T17:09:26.980Z,24.60
2018-07-31T17:11:55.307Z,24.50
2018-07-31T17:16:51.704Z,24.30
2018-07-31T17:19:20.015Z,24.30
2018-07-31T17:24:16.367Z,24.60
2018-07-31T17:26:45.023Z,24.50
2018-07-31T17:29:13.331Z,24.40
2018-07-31T17:31:41.603Z,24.40
2018-07-31T17:34:09.938Z,24.30
2018-07-31T17:36:38.363Z,24.30
2018-07-31T17:39:08.406Z,24.30
2018-07-31T17:41:36.937Z,24.30
2018-07-31T17:44:05.404Z,24.20
2018-07-31T17:46:33.798Z,24.10
2018-07-31T17:49:02.076Z,24.10
2018-07-31T17:51:30.459Z,24.00
2018-07-31T17:53:58.775Z,23.90
2018-07-31T17:56:27.074Z,23.90
2018-07-31T17:58:55.386Z,23.90
2018-07-31T18:01:24.049Z,23.80
2018-07-31T18:03:52.362Z,23.70
2018-07-31T18:06:20.703Z,23.70
2018-07-31T18:08:49.033Z,23.70
2018-07-31T18:11:17.348Z,23.90
2018-07-31T18:13:45.745Z,23.80
2018-07-31T18:16:14.050Z,23.90
2018-07-31T18:18:42.374Z,23.90
2018-07-31T18:21:10.682Z,23.90
2018-07-31T18:23:39.368Z,23.80
2018-07-31T18:26:07.606Z,23.70
2018-07-31T18:28:36.017Z,23.70
2018-07-31T18:31:04.355Z,23.70
2018-07-31T18:33:32.661Z,23.60
2018-07-31T18:36:00.976Z,23.60
2018-07-31T18:38:29.295Z,23.60
2018-07-31T18:40:57.629Z,23.60
2018-07-31T18:43:25.955Z,23.70
2018-07-31T18:45:54.284Z,23.60
2018-07-31T18:48:22.611Z,23.60
2018-07-31T18:50:50.914Z,23.50
2018-07-31T18:53:19.281Z,23.50
2018-07-31T18:55:47.519Z,23.60
2018-07-31T18:58:15.925Z,23.70
2018-07-31T19:00:44.315Z,23.80
2018-07-31T19:03:12.613Z,23.80
2018-07-31T19:05:40.933Z,23.70
2018-07-31T19:08:09.267Z,23.60
2018-07-31T19:10:37.619Z,23.50
2018-07-31T19:13:05.966Z,23.50
2018-07-31T19:15:34.239Z,23.40
2018-07-31T19:18:02.519Z,23.40
2018-07-31T19:20:30.807Z,23.40
2018-07-31T19:22:59.119Z,23.40
2018-07-31T19:25:27.437Z,23.50
2018-07-31T19:27:55.804Z,23.40
2018-07-31T19:30:24.067Z,23.50
2018-07-31T19:32:52.386Z,23.40
2018-07-31T19:35:20.694Z,23.30
2018-07-31T19:37:49.011Z,23.30
2018-07-31T19:40:17.468Z,23.30
2018-07-31T19:42:45.784Z,23.10
2018-07-31T19:45:14.209Z,23.10
2018-07-31T19:47:42.588Z,23.20
2018-07-31T19:50:10.900Z,23.10
2018-07-31T19:52:39.220Z,23.00
2018-07-31T19:55:07.503Z,23.00
2018-07-31T19:57:36.093Z,23.10
2018-07-31T20:00:04.958Z,23.10
2018-07-31T20:05:01.338Z,23.00
2018-07-31T20:07:29.646Z,23.10
2018-07-31T20:09:57.938Z,23.10
2018-07-31T20:12:26.355Z,23.10
2018-07-31T20:14:54.668Z,23.00
2018-07-31T20:17:22.962Z,23.10
2018-07-31T20:19:51.279Z,23.00
2018-07-31T20:22:19.599Z,23.00
2018-07-31T20:24:47.906Z,22.90
2018-07-31T20:27:16.264Z,22.80
2018-07-31T20:29:44.630Z,22.70
2018-07-31T20:32:13.319Z,22.70
2018-07-31T20:34:42.036Z,22.60
2018-07-31T20:37:10.358Z,22.70
2018-07-31T20:39:38.668Z,22.70
2018-07-31T20:42:07.011Z,22.60
2018-07-31T20:44:35.311Z,22.60
2018-07-31T20:47:03.655Z,22.60
2018-07-31T20:49:31.938Z,22.60
2018-07-31T20:52:00.254Z,22.70
2018-07-31T20:54:28.558Z,22.60
2018-07-31T20:59:24.922Z,22.60
2018-07-31T21:01:53.302Z,22.30
2018-07-31T21:04:21.578Z,22.30
2018-07-31T21:06:49.883Z,22.30
2018-07-31T21:09:21.227Z,22.20
2018-07-31T21:11:50.786Z,22.10
2018-07-31T21:14:19.314Z,22.30
2018-07-31T21:16:47.605Z,22.40
2018-07-31T21:19:16.040Z,22.40
2018-07-31T21:24:12.595Z,22.30
2018-07-31T21:26:41.054Z,22.20
2018-07-31T21:29:09.359Z,22.20
2018-07-31T21:31:37.662Z,22.20
2018-07-31T21:34:06.210Z,22.30
2018-07-31T21:39:02.600Z,22.20
2018-07-31T21:41:30.886Z,22.40
2018-07-31T21:43:59.169Z,22.50
2018-07-31T21:46:27.519Z,22.50
2018-07-31T21:48:55.837Z,22.50
2018-07-31T21:51:24.154Z,22.50
2018-07-31T21:53:52.468Z,22.50
2018-07-31T21:56:20.819Z,22.50
2018-07-31T21:58:49.133Z,22.50
2018-07-31T22:01:17.426Z,22.60
2018-07-31T22:03:45.735Z,22.80
2018-07-31T22:06:14.100Z,23.00
2018-07-31T22:08:42.413Z,23.20
2018-07-31T22:11:10.769Z,23.30
2018-07-31T22:13:39.087Z,23.40
2018-07-31T22:16:07.407Z,23.50
2018-07-31T22:18:35.791Z,23.60
2018-07-31T22:21:04.150Z,23.60
2018-07-31T22:26:00.584Z,23.70
2018-07-31T22:28:28.904Z,23.70
2018-07-31T22:30:57.309Z,23.80
2018-07-31T22:33:25.614Z,23.80
2018-07-31T22:35:54.202Z,23.90
2018-07-31T22:38:22.534Z,23.90
2018-07-31T22:40:51.073Z,23.90
2018-07-31T22:43:19.382Z,23.90
2018-07-31T22:45:47.795Z,23.90
2018-07-31T22:48:16.122Z,23.90
2018-07-31T22:50:44.449Z,23.90
2018-07-31T22:53:12.853Z,24.00
2018-07-31T22:55:41.160Z,24.00
2018-07-31T22:58:09.724Z,24.00
2018-07-31T23:00:38.172Z,24.10
2018-07-31T23:03:06.527Z,24.10
2018-07-31T23:05:35.075Z,24.10
2018-07-31T23:08:03.682Z,24.10
2018-07-31T23:10:32.061Z,24.10
2018-07-31T23:13:00.370Z,24.20
2018-07-31T23:15:28.796Z,24.20
2018-07-31T23:17:57.274Z,24.20
2018-07-31T23:22:53.825Z,24.20
2018-07-31T23:25:22.135Z,24.20
2018-07-31T23:27:50.646Z,24.20
2018-07-31T23:30:18.951Z,24.20
2018-07-31T23:32:47.262Z,24.20
2018-07-31T23:35:15.559Z,24.20
2018-07-31T23:37:44.030Z,24.20
2018-07-31T23:40:12.520Z,24.20
2018-07-31T23:42:40.971Z,24.20
2018-07-31T23:45:09.347Z,24.20
2018-07-31T23:47:37.879Z,24.20
2018-07-31T23:50:06.155Z,24.30
2018-07-31T23:52:34.590Z,24.30
2018-07-31T23:55:03.165Z,24.30
2018-07-31T23:59:59.529Z,24.30
